航空気象通報

ウインドサーファーのための航空気象通報による風予報です。

12/11-12/13の航空気象通報

2017年12月12日 00時08分51秒 | TAF
羽田空港
TAF RJTT 111107Z 1112/1218 23016KT 9999 FEW030
TEMPO 1112/1115 23022G32KT
BECMG 1206/1209 34008KT
日本時間11日21時-12日15時:230度から16ノットの風
但し、11日21-24時の間:時々230度から22ノット、突風32ノット
12日15-18時:風が変化
18時-13日03時:340度から8ノットの風


静岡空港
TAF RJNS 111107Z 1112/1218 26022G32KT 9999 FEW020
日本時間11日21時-13日03時:260度から22ノット、突風32ノット


福岡空港
TAF RJFF 111107Z 1112/1218 30020G30KT 8000 -SHSNRA FEW015 SCT030 BKN040
TEMPO 1115/1118 4000 -SHSNRA
TEMPO 1118/1200 3000 -SHSN
BECMG 1209/1212 32010KT
日本時間11日21時-12日18時:300度から20ノット、突風30ノット
18-21時:風が変化
21時-13日03時:320度から10ノットの風


那覇空港
TAF ROAH 111106Z 1112/1218 03013KT 9999 SCT040
日本時間11日21時-13日03時:030度から13ノットの風


石垣空港
TAF ROIG 111109Z 1112/1218 04017KT 9999 FEW030 BKN045
日本時間11日21時-13日03時:040度から17ノットの風


マウイのカフルイ空港
PHOG 111136Z 1112/1212 VRB04KT P6SM FEW025 SCT045
FM112100 22010KT P6SM FEW030 SCT050
FM120500 VRB04KT P6SM FEW030 SCT050 AMD LTD TO VIS AND WIND TIL 111600
ハワイ時間11日02-10時:風向不定4ノットの風
10-19時:220度から10ノットの風
19時-12日02時:風向不定4ノットの風


サイパン空港
TAF PGSN 111120Z 1112/1212 10014KT P6SM VCSH FEW020 SCT040
マリアナ時間11日22時-12日22時:100度から14ノットの風
ジャンル:
お天気
コメント   この記事についてブログを書く
この記事をはてなブックマークに追加
« 12/10-12/12の航空気象通報 | トップ | 12/12-12/14の航空気象通報 »
最近の画像もっと見る

コメントを投稿

ブログ作成者から承認されるまでコメントは反映されません。

TAF」カテゴリの最新記事